createdAt,value
2018-06-01T00:01:02.248Z,3.67
2018-06-01T00:03:31.444Z,4.50
2018-06-01T00:06:05.855Z,3.53
2018-06-01T00:08:52.186Z,3.27
2018-06-01T00:11:22.528Z,3.43
2018-06-01T00:14:02.200Z,3.27
2018-06-01T00:16:41.914Z,3.70
2018-06-01T00:19:10.175Z,4.70
2018-06-01T00:21:44.422Z,3.97
2018-06-01T00:24:14.383Z,3.63
2018-06-01T00:26:46.800Z,3.73
2018-06-01T00:29:34.085Z,3.50
2018-06-01T00:32:14.074Z,3.43
2018-06-01T00:34:49.853Z,4.10
2018-06-01T00:37:29.547Z,3.50
2018-06-01T00:40:01.408Z,3.30
2018-06-01T00:42:39.907Z,3.90
2018-06-01T00:45:27.451Z,3.73
2018-06-01T00:48:01.002Z,3.90
2018-06-01T00:50:38.525Z,4.03
2018-06-01T00:53:20.992Z,3.90
2018-06-01T00:55:55.272Z,4.27
2018-06-01T00:58:25.521Z,4.23
2018-06-01T01:00:54.782Z,3.23
2018-06-01T01:03:25.039Z,4.20
2018-06-01T01:05:58.447Z,3.53
2018-06-01T01:08:28.557Z,3.93
2018-06-01T01:10:58.908Z,3.60
2018-06-01T01:13:37.717Z,4.27
2018-06-01T01:16:15.443Z,5.23
2018-06-01T01:18:49.524Z,3.57
2018-06-01T01:21:27.039Z,3.83
2018-06-01T01:23:57.372Z,3.70
2018-06-01T01:26:37.724Z,3.60
2018-06-01T01:29:08.041Z,3.87
2018-06-01T01:31:47.287Z,3.40
2018-06-01T01:34:19.529Z,4.20
2018-06-01T01:36:48.599Z,4.40
2018-06-01T01:39:17.995Z,3.90
2018-06-01T01:41:53.936Z,3.97
2018-06-01T01:44:37.279Z,3.90
2018-06-01T01:47:06.625Z,3.70
2018-06-01T01:49:41.963Z,3.60
2018-06-01T01:52:14.931Z,3.87
2018-06-01T01:54:43.194Z,4.13
2018-06-01T01:57:12.564Z,3.73
2018-06-01T01:59:44.174Z,4.00
2018-06-01T02:02:21.789Z,3.00
2018-06-01T02:05:17.306Z,3.93
2018-06-01T02:08:16.901Z,4.07
2018-06-01T02:10:45.973Z,3.77
2018-06-01T02:13:14.216Z,3.23
2018-06-01T02:15:42.497Z,3.80
2018-06-01T02:21:36.372Z,3.60
2018-06-01T02:24:05.730Z,3.90
2018-06-01T02:26:40.016Z,3.73
2018-06-01T02:29:20.701Z,3.90
2018-06-01T02:32:07.239Z,4.30
2018-06-01T02:34:39.959Z,3.60
2018-06-01T02:37:08.239Z,4.30
2018-06-01T02:39:36.516Z,3.87
2018-06-01T02:42:04.942Z,4.30
2018-06-01T02:44:41.661Z,3.70
2018-06-01T02:47:27.028Z,3.93
2018-06-01T02:50:19.473Z,3.83
2018-06-01T02:52:58.823Z,4.00
2018-06-01T02:55:28.137Z,4.07
2018-06-01T02:58:09.781Z,4.37
2018-06-01T03:00:42.955Z,4.60
2018-06-01T03:03:26.095Z,4.77
2018-06-01T03:05:57.091Z,4.20
2018-06-01T03:08:31.744Z,4.80
2018-06-01T03:11:24.731Z,5.00
2018-06-01T03:13:57.473Z,4.23
2018-06-01T03:16:36.037Z,3.83
2018-06-01T03:19:10.804Z,4.00
2018-06-01T03:24:42.020Z,5.00
2018-06-01T03:27:10.278Z,4.37
2018-06-01T03:29:59.922Z,4.00
2018-06-01T03:32:34.203Z,4.57
2018-06-01T03:35:04.485Z,4.30
2018-06-01T03:37:34.668Z,4.47
2018-06-01T03:40:02.942Z,3.93
2018-06-01T03:42:32.271Z,4.73
2018-06-01T03:45:00.510Z,4.47
2018-06-01T03:47:28.802Z,5.20
2018-06-01T03:49:58.254Z,3.83
2018-06-01T03:52:28.323Z,4.50
2018-06-01T03:54:57.673Z,4.83
2018-06-01T03:57:27.760Z,4.07
2018-06-01T04:00:01.455Z,4.47
2018-06-01T04:02:29.745Z,4.33
2018-06-01T04:05:03.804Z,4.03
2018-06-01T04:07:33.077Z,4.30
2018-06-01T04:10:11.254Z,3.80
2018-06-01T04:12:43.330Z,4.03
2018-06-01T04:15:15.941Z,4.07
2018-06-01T04:17:57.379Z,3.90
2018-06-01T04:20:31.344Z,4.47
2018-06-01T04:23:01.632Z,3.80
2018-06-01T04:25:35.582Z,4.37
2018-06-01T04:28:07.499Z,3.57
2018-06-01T04:30:40.153Z,4.40
2018-06-01T04:33:12.161Z,4.47
2018-06-01T04:35:44.821Z,4.43
2018-06-01T04:38:17.802Z,3.63
2018-06-01T04:41:04.083Z,3.43
2018-06-01T04:43:40.054Z,4.50
2018-06-01T04:46:08.312Z,3.40
2018-06-01T04:48:44.479Z,3.53
2018-06-01T04:51:13.481Z,3.83
2018-06-01T04:53:52.854Z,3.40
2018-06-01T04:56:29.543Z,3.77
2018-06-01T04:59:17.099Z,3.10
2018-06-01T05:01:46.369Z,3.30
2018-06-01T05:04:15.622Z,3.30
2018-06-01T05:06:44.666Z,3.63
2018-06-01T05:09:26.132Z,3.17
2018-06-01T05:11:58.384Z,2.93
2018-06-01T05:14:27.656Z,3.17
2018-06-01T05:17:03.919Z,3.27
2018-06-01T05:19:34.155Z,3.53
2018-06-01T05:22:02.415Z,3.07
2018-06-01T05:24:34.095Z,3.13
2018-06-01T05:27:02.344Z,2.90
2018-06-01T05:29:34.426Z,3.10
2018-06-01T05:32:04.483Z,3.60
2018-06-01T05:34:33.668Z,3.23
2018-06-01T05:37:02.944Z,3.07
2018-06-01T05:39:32.268Z,3.10
2018-06-01T05:42:05.744Z,3.37
2018-06-01T05:44:37.433Z,3.20
2018-06-01T05:47:11.044Z,2.67
2018-06-01T05:49:40.315Z,4.87
2018-06-01T05:52:14.876Z,2.97
2018-06-01T05:54:46.924Z,2.63
2018-06-01T05:57:15.964Z,2.93
2018-06-01T05:59:44.320Z,3.47
2018-06-01T06:02:14.705Z,2.30
2018-06-01T06:05:01.945Z,2.40
2018-06-01T06:07:42.052Z,7.67
2018-06-01T06:10:11.366Z,3.58
2018-06-01T06:12:49.683Z,3.50
2018-06-01T06:15:20.029Z,2.62
2018-06-01T06:18:10.331Z,3.17
2018-06-01T06:20:50.610Z,2.30
2018-06-01T06:23:20.037Z,4.75
2018-06-01T06:25:49.369Z,3.28
2018-06-01T06:28:18.652Z,2.10
2018-06-01T06:30:51.047Z,2.40
2018-06-01T06:33:20.311Z,3.65
2018-06-01T06:35:48.611Z,3.08
2018-06-01T06:38:17.713Z,3.08
2018-06-01T06:40:45.966Z,3.00
2018-06-01T06:43:14.302Z,2.28
2018-06-01T06:45:43.375Z,2.28
2018-06-01T06:48:12.436Z,3.10
2018-06-01T06:50:40.703Z,3.83
2018-06-01T06:53:09.015Z,2.70
2018-06-01T06:55:41.963Z,2.50
2018-06-01T06:58:10.271Z,4.03
2018-06-01T07:00:38.627Z,2.60
2018-06-01T07:03:07.947Z,2.35
2018-06-01T07:05:37.324Z,2.45
2018-06-01T07:08:06.261Z,2.40
2018-06-01T07:10:37.356Z,3.20
2018-06-01T07:13:12.820Z,2.95
2018-06-01T07:15:41.408Z,3.22
2018-06-01T07:18:10.765Z,3.55
2018-06-01T07:20:40.989Z,3.70
2018-06-01T07:23:28.269Z,3.37
2018-06-01T07:26:00.467Z,3.42
2018-06-01T07:28:32.288Z,3.00
2018-06-01T07:31:07.083Z,3.53
2018-06-01T07:33:58.127Z,3.35
2018-06-01T07:36:28.579Z,3.30
2018-06-01T07:39:02.186Z,4.10
2018-06-01T07:41:31.532Z,4.20
2018-06-01T07:44:08.288Z,3.75
2018-06-01T07:46:45.275Z,3.70
2018-06-01T07:49:25.918Z,3.83
2018-06-01T07:52:05.824Z,3.87
2018-06-01T07:54:37.955Z,4.93
2018-06-01T07:57:06.281Z,4.00
2018-06-01T07:59:34.578Z,3.90
2018-06-01T08:02:04.651Z,3.53
2018-06-01T08:04:33.126Z,4.85
2018-06-01T08:07:01.432Z,3.67
2018-06-01T08:09:30.493Z,4.70
2018-06-01T08:11:58.810Z,3.95
2018-06-01T08:14:27.145Z,4.75
2018-06-01T08:17:00.173Z,6.87
2018-06-01T08:19:28.425Z,4.32
2018-06-01T08:21:56.688Z,4.18
2018-06-01T08:24:25.041Z,5.25
2018-06-01T08:26:53.381Z,4.00
2018-06-01T08:29:22.511Z,3.78
2018-06-01T08:31:52.840Z,4.40
2018-06-01T08:34:25.828Z,4.12
2018-06-01T08:36:54.167Z,4.57
2018-06-01T08:39:27.318Z,4.50
2018-06-01T08:41:56.467Z,4.57
2018-06-01T08:44:35.583Z,5.45
2018-06-01T08:47:04.984Z,5.32
2018-06-01T08:49:46.576Z,4.60
2018-06-01T08:52:33.194Z,4.55
2018-06-01T08:55:13.071Z,4.72
2018-06-01T08:57:48.806Z,5.22
2018-06-01T09:00:18.908Z,5.40
2018-06-01T09:02:49.941Z,4.25
2018-06-01T09:05:26.008Z,4.72
2018-06-01T09:08:01.468Z,4.35
2018-06-01T09:10:49.270Z,4.37
2018-06-01T09:13:38.839Z,4.90
2018-06-01T09:16:08.682Z,4.00
2018-06-01T09:18:41.977Z,4.25
2018-06-01T09:21:15.975Z,4.90
2018-06-01T09:24:02.102Z,4.82
2018-06-01T09:26:34.174Z,4.62
2018-06-01T09:31:44.059Z,4.32
2018-06-01T09:34:25.236Z,5.00
2018-06-01T09:37:05.843Z,4.12
2018-06-01T09:39:53.031Z,4.30
2018-06-01T09:42:33.963Z,4.70
2018-06-01T09:45:02.327Z,4.40
2018-06-01T09:47:32.634Z,4.65
2018-06-01T09:50:04.518Z,4.22
2018-06-01T09:52:37.455Z,4.05
2018-06-01T09:55:16.115Z,3.78
2018-06-01T09:57:49.198Z,4.03
2018-06-01T10:00:31.362Z,4.00
2018-06-01T10:03:07.394Z,3.30
2018-06-01T10:05:46.145Z,4.20
2018-06-01T10:08:18.211Z,4.20
2018-06-01T10:10:46.530Z,3.47
2018-06-01T10:13:18.788Z,3.67
2018-06-01T10:15:47.175Z,4.28
2018-06-01T10:18:17.098Z,3.15
2018-06-01T10:20:46.509Z,3.60
2018-06-01T10:23:18.643Z,3.25
2018-06-01T10:25:58.985Z,2.80
2018-06-01T10:28:28.469Z,2.78
2018-06-01T10:31:06.501Z,3.25
2018-06-01T10:33:35.820Z,2.97
2018-06-01T10:36:06.594Z,3.47
2018-06-01T10:38:37.952Z,3.97
2018-06-01T10:41:06.572Z,3.40
2018-06-01T10:43:37.004Z,3.30
2018-06-01T10:46:17.707Z,3.15
2018-06-01T10:48:48.021Z,3.40
2018-06-01T10:51:19.038Z,2.60
2018-06-01T10:53:47.371Z,3.00
2018-06-01T10:56:16.230Z,3.03
2018-06-01T10:58:49.724Z,2.97
2018-06-01T11:01:35.872Z,3.37
2018-06-01T11:04:35.557Z,3.55
2018-06-01T11:07:08.926Z,4.30
2018-06-01T11:09:41.820Z,3.50
2018-06-01T11:12:22.096Z,3.72
2018-06-01T11:14:51.355Z,3.73
2018-06-01T11:17:28.229Z,3.60
2018-06-01T11:19:56.526Z,3.70
2018-06-01T11:22:29.172Z,3.05
2018-06-01T11:24:58.487Z,3.17
2018-06-01T11:27:32.535Z,3.30
2018-06-01T11:30:25.872Z,2.95
2018-06-01T11:33:05.052Z,3.15
2018-06-01T11:35:33.385Z,2.80
2018-06-01T11:38:06.793Z,2.87
2018-06-01T11:40:43.251Z,2.60
2018-06-01T11:43:15.394Z,2.83
2018-06-01T11:45:48.243Z,2.45
2018-06-01T11:48:23.544Z,3.60
2018-06-01T11:50:53.879Z,2.60
2018-06-01T11:53:28.231Z,2.90
2018-06-01T11:55:56.707Z,3.00
2018-06-01T11:58:34.988Z,2.85
2018-06-01T12:01:06.163Z,2.72
2018-06-01T12:03:38.813Z,2.72
2018-06-01T12:06:19.133Z,2.30
2018-06-01T12:08:49.492Z,2.20
2018-06-01T12:11:29.499Z,2.20
2018-06-01T12:14:02.618Z,2.53
2018-06-01T12:16:37.367Z,1.90
2018-06-01T12:19:07.473Z,2.30
2018-06-01T12:21:36.832Z,2.00
2018-06-01T12:24:07.547Z,2.20
2018-06-01T12:26:40.105Z,2.12
2018-06-01T12:29:27.901Z,2.20
2018-06-01T12:32:02.380Z,2.45
2018-06-01T12:34:30.735Z,2.70
2018-06-01T12:37:11.731Z,2.35
2018-06-01T12:39:42.008Z,2.10
2018-06-01T12:42:10.712Z,2.33
2018-06-01T12:44:43.093Z,2.15
2018-06-01T12:47:18.252Z,2.15
2018-06-01T12:49:55.059Z,2.00
2018-06-01T12:52:27.139Z,1.95
2018-06-01T12:54:55.989Z,2.22
2018-06-01T12:57:26.278Z,2.15
2018-06-01T12:59:55.374Z,1.92
2018-06-01T13:02:24.455Z,2.05
2018-06-01T13:05:00.194Z,1.92
2018-06-01T13:07:28.467Z,2.30
2018-06-01T13:09:58.758Z,1.50
2018-06-01T13:12:28.026Z,2.12
2018-06-01T13:14:57.080Z,1.90
2018-06-01T13:17:27.470Z,2.10
2018-06-01T13:19:55.960Z,1.80
2018-06-01T13:22:25.447Z,1.80
2018-06-01T13:24:53.791Z,2.30
2018-06-01T13:27:28.767Z,2.00
2018-06-01T13:30:07.514Z,2.33
2018-06-01T13:32:35.822Z,2.00
2018-06-01T13:35:05.130Z,2.00
2018-06-01T13:37:34.435Z,2.10
2018-06-01T13:40:13.119Z,2.17
2018-06-01T13:42:41.411Z,2.00
2018-06-01T13:45:09.668Z,1.80
2018-06-01T13:47:38.060Z,2.00
2018-06-01T13:50:06.423Z,1.80
2018-06-01T13:52:35.750Z,2.00
2018-06-01T13:55:15.669Z,2.10
2018-06-01T13:57:44.876Z,2.17
2018-06-01T14:00:15.092Z,1.90
2018-06-01T14:03:03.329Z,1.70
2018-06-01T14:05:32.673Z,1.70
2018-06-01T14:08:02.666Z,1.83
2018-06-01T14:10:36.701Z,1.90
2018-06-01T14:13:15.435Z,4.90
2018-06-01T14:15:50.317Z,2.08
2018-06-01T14:18:18.593Z,2.25
2018-06-01T14:20:50.615Z,1.85
2018-06-01T14:23:32.244Z,2.05
2018-06-01T14:26:00.803Z,2.12
2018-06-01T14:28:35.057Z,1.70
2018-06-01T14:31:15.476Z,1.90
2018-06-01T14:34:01.986Z,1.87
2018-06-01T14:36:34.200Z,2.10
2018-06-01T14:39:06.843Z,2.15
2018-06-01T14:41:38.633Z,2.20
2018-06-01T14:44:08.069Z,2.00
2018-06-01T14:46:37.791Z,2.03
2018-06-01T14:49:08.907Z,1.95
2018-06-01T14:51:41.687Z,1.80
2018-06-01T14:54:09.980Z,2.20
2018-06-01T14:56:45.026Z,2.00
2018-06-01T14:59:22.240Z,2.37
2018-06-01T15:01:51.528Z,2.92
2018-06-01T15:04:29.700Z,2.05
2018-06-01T15:06:57.997Z,2.00
2018-06-01T15:09:27.028Z,2.10
2018-06-01T15:11:58.614Z,2.33
2018-06-01T15:14:30.350Z,2.00
2018-06-01T15:17:06.719Z,1.90
2018-06-01T15:19:35.038Z,2.00
2018-06-01T15:22:05.145Z,2.00
2018-06-01T15:24:34.572Z,1.90
2018-06-01T15:27:04.650Z,2.33
2018-06-01T15:29:32.909Z,2.03
2018-06-01T15:32:11.249Z,1.75
2018-06-01T15:34:39.493Z,2.17
2018-06-01T15:37:14.679Z,2.17
2018-06-01T15:39:59.155Z,2.10
2018-06-01T15:42:28.568Z,2.00
2018-06-01T15:44:57.789Z,1.83
2018-06-01T15:47:26.105Z,2.15
2018-06-01T15:49:55.424Z,1.85
2018-06-01T15:52:49.464Z,1.70
2018-06-01T15:55:32.529Z,2.40
2018-06-01T15:58:07.686Z,2.90
2018-06-01T16:00:37.983Z,2.33
2018-06-01T16:03:18.120Z,3.78
2018-06-01T16:05:48.577Z,2.05
2018-06-01T16:08:22.588Z,1.80
2018-06-01T16:10:59.933Z,2.17
2018-06-01T16:13:28.220Z,2.03
2018-06-01T16:15:56.475Z,1.80
2018-06-01T16:18:28.470Z,1.98
2018-06-01T16:20:56.838Z,2.10
2018-06-01T16:23:26.120Z,1.98
2018-06-01T16:25:55.499Z,2.33
2018-06-01T16:28:27.077Z,2.50
2018-06-01T16:30:55.398Z,2.30
2018-06-01T16:33:25.508Z,2.60
2018-06-01T16:35:56.308Z,2.58
2018-06-01T16:38:24.606Z,3.25
2018-06-01T16:40:56.484Z,3.17
2018-06-01T16:43:30.057Z,2.35
2018-06-01T16:46:06.727Z,2.22
2018-06-01T16:48:45.404Z,2.75
2018-06-01T16:51:20.380Z,2.33
2018-06-01T16:53:48.656Z,2.10
2018-06-01T16:56:24.972Z,2.83
2018-06-01T16:58:59.694Z,2.37
2018-06-01T17:01:35.741Z,3.12
2018-06-01T17:04:08.739Z,2.60
2018-06-01T17:07:09.175Z,2.40
2018-06-01T17:09:37.420Z,2.42
2018-06-01T17:12:05.720Z,2.37
2018-06-01T17:14:35.808Z,2.75
2018-06-01T17:17:04.078Z,2.25
2018-06-01T17:19:33.459Z,2.62
2018-06-01T17:22:04.990Z,2.58
2018-06-01T17:24:47.026Z,2.45
2018-06-01T17:27:20.535Z,3.30
2018-06-01T17:29:48.960Z,3.10
2018-06-01T17:32:18.244Z,3.30
2018-06-01T17:34:50.738Z,3.20
2018-06-01T17:37:19.032Z,3.20
2018-06-01T17:40:01.635Z,2.67
2018-06-01T17:42:30.972Z,2.97
2018-06-01T17:45:09.746Z,2.87
2018-06-01T17:47:45.898Z,2.77
2018-06-01T17:50:25.339Z,2.90
2018-06-01T17:53:03.069Z,2.93
2018-06-01T17:55:33.234Z,3.10
2018-06-01T17:58:06.431Z,2.87
2018-06-01T18:00:34.924Z,3.20
2018-06-01T18:03:04.204Z,2.83
2018-06-01T18:05:43.253Z,3.20
2018-06-01T18:08:12.320Z,3.30
2018-06-01T18:10:40.607Z,3.10
2018-06-01T18:13:13.688Z,3.07
2018-06-01T18:15:41.985Z,3.20
2018-06-01T18:18:28.641Z,2.97
2018-06-01T18:21:05.525Z,3.50
2018-06-01T18:23:37.639Z,3.30
2018-06-01T18:26:12.216Z,3.83
2018-06-01T18:28:42.560Z,3.30
2018-06-01T18:31:14.727Z,4.67
2018-06-01T18:33:44.060Z,7.43
2018-06-01T18:36:13.755Z,4.73
2018-06-01T18:38:42.963Z,4.00
2018-06-01T18:41:12.051Z,3.93
2018-06-01T18:43:41.246Z,4.63
2018-06-01T18:46:10.571Z,3.53
2018-06-01T18:48:39.628Z,3.60
2018-06-01T18:51:07.879Z,3.50
2018-06-01T18:53:38.231Z,3.93
2018-06-01T18:56:06.574Z,3.10
2018-06-01T18:58:35.125Z,3.00
2018-06-01T19:01:04.185Z,2.70
2018-06-01T19:03:33.386Z,2.90
2018-06-01T19:06:03.600Z,2.77
2018-06-01T19:08:32.976Z,3.10
2018-06-01T19:11:05.297Z,3.30
2018-06-01T19:13:38.960Z,3.13
2018-06-01T19:16:09.366Z,2.37
2018-06-01T19:18:42.811Z,2.90
2018-06-01T19:21:11.124Z,2.80
2018-06-01T19:23:39.510Z,4.87
2018-06-01T19:26:09.859Z,2.60
2018-06-01T19:28:47.154Z,3.53
2018-06-01T19:31:15.498Z,2.87
2018-06-01T19:33:43.831Z,5.60
2018-06-01T19:36:14.208Z,3.70
2018-06-01T19:38:49.241Z,4.30
2018-06-01T19:41:26.753Z,7.10
2018-06-01T19:43:55.288Z,3.07
2018-06-01T19:46:25.369Z,2.53
2018-06-01T19:48:54.493Z,2.47
2018-06-01T19:51:26.404Z,2.60
2018-06-01T19:53:59.237Z,2.53
2018-06-01T19:56:30.188Z,3.90
2018-06-01T19:59:07.650Z,4.03
2018-06-01T20:01:42.139Z,2.70
2018-06-01T20:04:10.471Z,3.00
2018-06-01T20:06:38.817Z,3.07
2018-06-01T20:09:08.133Z,2.67
2018-06-01T20:11:36.463Z,3.00
2018-06-01T20:14:08.975Z,3.07
2018-06-01T20:16:40.237Z,4.30
2018-06-01T20:19:11.050Z,3.60
2018-06-01T20:21:39.335Z,3.23
2018-06-01T20:24:08.711Z,3.57
2018-06-01T20:26:37.172Z,3.87
2018-06-01T20:29:06.612Z,3.93
2018-06-01T20:31:34.961Z,4.27
2018-06-01T20:34:04.193Z,3.83
2018-06-01T20:36:32.484Z,4.10
2018-06-01T20:39:00.786Z,3.53
2018-06-01T20:41:29.840Z,3.60
2018-06-01T20:43:58.286Z,2.70
2018-06-01T20:46:28.681Z,3.40
2018-06-01T20:48:57.192Z,3.67
2018-06-01T20:51:27.533Z,3.23
2018-06-01T20:53:55.870Z,3.27
2018-06-01T20:56:24.982Z,3.40
2018-06-01T20:58:57.636Z,3.07
2018-06-01T21:01:39.774Z,3.87
2018-06-01T21:04:11.940Z,3.17
2018-06-01T21:06:49.687Z,3.00
2018-06-01T21:09:24.519Z,3.50
2018-06-01T21:11:53.886Z,3.33
2018-06-01T21:14:23.211Z,3.00
2018-06-01T21:17:00.124Z,3.57
2018-06-01T21:19:46.793Z,3.00
2018-06-01T21:22:15.136Z,3.20
2018-06-01T21:24:43.527Z,3.87
2018-06-01T21:27:15.788Z,3.53
2018-06-01T21:29:47.518Z,3.60
2018-06-01T21:32:27.829Z,3.43
2018-06-01T21:34:56.743Z,3.40
2018-06-01T21:37:26.272Z,3.43
2018-06-01T21:39:57.307Z,3.30
2018-06-01T21:42:30.463Z,3.83
2018-06-01T21:45:01.002Z,3.00
2018-06-01T21:47:35.570Z,4.07
2018-06-01T21:50:04.998Z,3.73
2018-06-01T21:52:40.953Z,4.17
2018-06-01T21:55:09.278Z,3.97
2018-06-01T21:57:41.743Z,3.80
2018-06-01T22:00:15.535Z,4.30
2018-06-01T22:02:46.525Z,4.50
2018-06-01T22:05:22.510Z,4.10
2018-06-01T22:07:57.235Z,4.20
2018-06-01T22:10:31.433Z,3.43
2018-06-01T22:13:01.768Z,4.87
2018-06-01T22:15:30.421Z,5.03
2018-06-01T22:18:06.438Z,4.57
2018-06-01T22:20:41.355Z,4.60
2018-06-01T22:23:10.670Z,3.73
2018-06-01T22:25:40.045Z,3.70
2018-06-01T22:28:11.788Z,3.57
2018-06-01T22:30:42.787Z,3.40
2018-06-01T22:33:11.182Z,3.27
2018-06-01T22:35:42.943Z,3.87
2018-06-01T22:38:13.365Z,3.50
2018-06-01T22:40:44.062Z,3.27
2018-06-01T22:43:17.979Z,3.47
2018-06-01T22:45:51.704Z,3.47
2018-06-01T22:48:23.511Z,4.07
2018-06-01T22:50:51.836Z,3.57
2018-06-01T22:53:24.027Z,4.03
2018-06-01T22:56:03.391Z,3.70
2018-06-01T22:58:31.848Z,3.93
2018-06-01T23:01:18.988Z,3.77
2018-06-01T23:03:58.972Z,3.77
2018-06-01T23:06:29.468Z,3.73
2018-06-01T23:09:08.581Z,3.93
2018-06-01T23:11:50.221Z,3.60
2018-06-01T23:14:18.888Z,3.27
2018-06-01T23:16:53.960Z,4.07
2018-06-01T23:19:30.618Z,4.13
2018-06-01T23:21:58.888Z,4.10
2018-06-01T23:24:27.219Z,3.87
2018-06-01T23:26:57.237Z,3.90
2018-06-01T23:29:28.272Z,3.67
2018-06-01T23:31:58.594Z,4.40
2018-06-01T23:34:35.475Z,3.93
2018-06-01T23:40:04.367Z,3.63
2018-06-01T23:42:33.719Z,3.60
2018-06-01T23:45:06.911Z,3.37
2018-06-01T23:47:52.275Z,3.93
2018-06-01T23:50:28.505Z,3.80
2018-06-01T23:52:56.938Z,4.27
2018-06-01T23:55:26.181Z,3.90
2018-06-01T23:57:58.342Z,4.00
